Terminal Aerodrome Forecast
Issued by NWS

Home | Current Version | Previous Version | Text Only | Print | Product List | Glossary On
Versions: 1 2 3 4 5 6 7 8 9 10 11 12 13 14 15 16 17 18 19 20 21 22 23 24 25 26 27 28
000
FTPA31 PHFO 101720
TAFHOG
TAF
PHOG 101720Z 1018/1118 15004KT P6SM SKC
     FM101900 03010KT P6SM FEW025 SCT050
     FM110900 15005KT P6SM FEW025
     AMD LTD TO VIS AND WIND 1109/1116=

USA.gov is the U.S. government's official web portal to all federal, state and local government web resources and services.